Time;durP1;ratioP1;P1;durP2;ratioP2;P2;SDS_P1;SDS_P2;PMS_P1;PMS_P2;Temp;Humidity;BMP_temperature;BMP_pressure;BME280_temperature;BME280_humidity;BME280_pressure;Samples;Min_cycle;Max_cycle;Signal;HPM_P1;HPM_P2
2021/01/11 00:01:39;;;;;;;15.68;7.75;;;6.20;95.70;;;;;;5033791;28;20029;-87
2021/01/11 00:04:05;;;;;;;14.80;7.97;;;6.20;95.90;;;;;;5026749;28;20044;-87
2021/01/11 00:06:38;;;;;;;14.40;6.88;;;6.20;96.10;;;;;;5046480;28;20059;-86
2021/01/11 00:09:05;;;;;;;19.35;7.72;;;6.10;96.10;;;;;;5034402;28;20021;-87
2021/01/11 00:11:32;;;;;;;18.98;10.23;;;6.20;96.20;;;;;;5033596;28;20033;-87
2021/01/11 00:13:59;;;;;;;17.35;8.45;;;6.30;96.20;;;;;;5033444;28;20032;-87
2021/01/11 00:16:25;;;;;;;15.27;7.50;;;6.30;96.10;;;;;;5036004;28;20018;-85
2021/01/11 00:18:51;;;;;;;13.07;7.35;;;6.30;96.10;;;;;;5023652;28;20036;-87
2021/01/11 00:21:16;;;;;;;19.08;7.65;;;6.30;96.10;;;;;;5027183;28;20028;-86
2021/01/11 00:23:43;;;;;;;15.98;7.35;;;6.30;96.10;;;;;;5034178;28;20025;-87
2021/01/11 00:26:10;;;;;;;20.40;7.90;;;6.30;96.00;;;;;;5023623;28;20021;-86
2021/01/11 00:28:38;;;;;;;11.80;7.05;;;6.30;96.10;;;;;;5021930;28;20025;-87
2021/01/11 00:31:03;;;;;;;16.52;7.10;;;6.30;96.20;;;;;;5034695;28;20036;-87
2021/01/11 00:33:29;;;;;;;15.50;7.50;;;6.30;96.20;;;;;;5042281;28;20017;-86
2021/01/11 00:35:54;;;;;;;12.00;7.10;;;6.30;96.30;;;;;;5054863;28;20021;-85
2021/01/11 00:38:20;;;;;;;20.75;7.45;;;6.30;96.30;;;;;;5069135;28;20029;-86
2021/01/11 00:40:46;;;;;;;24.00;7.43;;;6.30;96.50;;;;;;5025386;28;20037;-86
2021/01/11 00:43:11;;;;;;;13.25;6.00;;;6.20;96.50;;;;;;5040453;28;20108;-87
2021/01/11 00:45:39;;;;;;;15.15;5.55;;;6.30;96.40;;;;;;5045780;28;20498;-86
2021/01/11 00:48:05;;;;;;;15.45;5.32;;;6.30;96.30;;;;;;5038133;28;20063;-87
2021/01/11 00:50:30;;;;;;;9.63;4.53;;;6.30;96.60;;;;;;5021644;28;20033;-86
2021/01/11 00:52:56;;;;;;;15.20;5.53;;;6.40;96.20;;;;;;5020535;28;20478;-86
2021/01/11 00:55:22;;;;;;;9.60;5.18;;;6.40;96.20;;;;;;5036931;28;20028;-87
2021/01/11 00:57:47;;;;;;;11.40;4.47;;;6.40;96.00;;;;;;5031419;28;20227;-88
2021/01/11 01:00:14;;;;;;;10.30;4.45;;;6.50;95.70;;;;;;5043768;28;20072;-87
2021/01/11 01:02:40;;;;;;;36.67;11.23;;;6.50;95.60;;;;;;5048080;28;20037;-87
2021/01/11 01:05:09;;;;;;;9.13;4.55;;;6.50;95.70;;;;;;5032721;28;20021;-87
2021/01/11 01:07:37;;;;;;;8.38;4.72;;;6.50;95.60;;;;;;5022324;28;20158;-87
2021/01/11 01:10:04;;;;;;;7.28;4.82;;;6.50;95.40;;;;;;5022902;28;20017;-88
2021/01/11 01:12:30;;;;;;;8.57;5.30;;;6.60;95.30;;;;;;5016323;28;20071;-87
2021/01/11 01:14:55;;;;;;;15.02;5.20;;;6.60;95.30;;;;;;5016954;28;20116;-87
2021/01/11 01:17:21;;;;;;;9.05;4.45;;;6.60;95.20;;;;;;5030297;28;20021;-87
2021/01/11 01:19:47;;;;;;;7.47;4.50;;;6.60;95.10;;;;;;5033261;28;20031;-87
2021/01/11 01:22:12;;;;;;;10.60;4.30;;;6.70;95.00;;;;;;5033056;28;20444;-87
2021/01/11 01:24:38;;;;;;;7.65;4.22;;;6.60;95.20;;;;;;5027063;28;20032;-88
2021/01/11 01:27:04;;;;;;;7.13;4.35;;;6.50;95.40;;;;;;5028203;28;20481;-87
2021/01/11 01:29:29;;;;;;;11.25;6.00;;;6.50;95.50;;;;;;5023755;28;20024;-87
2021/01/11 01:31:55;;;;;;;16.55;8.07;;;6.50;95.40;;;;;;5058575;28;20051;-86
2021/01/11 01:34:21;;;;;;;12.00;7.18;;;6.50;95.50;;;;;;5050307;28;20044;-88
2021/01/11 01:36:46;;;;;;;11.02;6.65;;;6.50;95.40;;;;;;5034702;28;20044;-88
2021/01/11 01:39:12;;;;;;;8.13;6.05;;;6.60;95.40;;;;;;5030548;28;20030;-89
2021/01/11 01:41:37;;;;;;;23.88;11.20;;;6.60;95.30;;;;;;5024393;28;20040;-87
2021/01/11 01:44:03;;;;;;;10.23;5.53;;;6.50;95.20;;;;;;5051629;28;20035;-88
2021/01/11 01:46:31;;;;;;;13.10;6.43;;;6.50;95.30;;;;;;5049552;28;20386;-87
2021/01/11 01:48:58;;;;;;;17.35;6.70;;;6.50;95.30;;;;;;5031535;28;20032;-88
2021/01/11 01:51:24;;;;;;;8.38;5.38;;;6.50;95.40;;;;;;5051375;28;20021;-88
2021/01/11 01:53:49;;;;;;;8.75;4.78;;;6.50;95.40;;;;;;5050703;28;20040;-88
2021/01/11 01:56:16;;;;;;;8.15;5.47;;;6.50;95.30;;;;;;5046738;28;20102;-87
2021/01/11 01:58:43;;;;;;;8.05;5.05;;;6.50;95.30;;;;;;5027186;28;20033;-87
2021/01/11 02:01:09;;;;;;;11.90;4.25;;;6.50;95.50;;;;;;5048676;28;20033;-88
2021/01/11 02:03:34;;;;;;;11.60;4.38;;;6.40;95.60;;;;;;5024711;28;20379;-88
2021/01/11 02:06:00;;;;;;;9.50;4.18;;;6.50;95.60;;;;;;5042857;28;20038;-87
2021/01/11 02:08:42;;;;;;;13.70;5.13;;;6.50;95.70;;;;;;5029605;28;20116;-87
2021/01/11 02:11:23;;;;;;;10.13;4.65;;;6.50;95.60;;;;;;5026948;28;20034;-87
2021/01/11 02:13:56;;;;;;;7.00;3.83;;;6.40;95.70;;;;;;5051275;28;20029;-87
2021/01/11 02:16:24;;;;;;;8.30;3.75;;;6.50;95.60;;;;;;5025838;28;20021;-87
2021/01/11 02:19:01;;;;;;;6.80;4.10;;;6.50;95.30;;;;;;5051166;28;20478;-86
2021/01/11 02:21:51;;;;;;;6.18;3.20;;;6.50;95.30;;;;;;5036676;28;20535;-87
2021/01/11 02:25:05;;;;;;;6.88;3.60;;;6.50;95.30;;;;;;5056320;28;20024;-87
2021/01/11 02:27:52;;;;;;;6.53;3.20;;;6.50;95.40;;;;;;5040905;28;20041;-87
2021/01/11 02:30:32;;;;;;;11.05;3.30;;;6.50;95.40;;;;;;5064942;28;20060;-87
2021/01/11 02:33:17;;;;;;;8.38;3.22;;;6.40;95.40;;;;;;5045090;28;20021;-87
2021/01/11 02:35:49;;;;;;;5.93;2.97;;;6.50;95.40;;;;;;5036471;28;20437;-87
2021/01/11 02:38:20;;;;;;;8.07;2.67;;;6.50;95.30;;;;;;5054965;28;20098;-86
2021/01/11 02:40:46;;;;;;;4.85;2.60;;;6.50;95.10;;;;;;5022382;28;20024;-87
2021/01/11 02:43:12;;;;;;;;;;;6.60;94.70;;;;;;5038088;28;20122;-85
2021/01/11 02:45:38;;;;;;;6.95;2.67;;;6.50;94.70;;;;;;5033243;28;20366;-85
2021/01/11 02:48:17;;;;;;;5.88;2.22;;;6.50;94.60;;;;;;5035823;28;20036;-86
2021/01/11 02:50:53;;;;;;;6.90;1.95;;;6.50;94.80;;;;;;5051852;28;20037;-86
2021/01/11 02:53:37;;;;;;;4.72;2.05;;;6.50;95.00;;;;;;5024450;28;20029;-87
2021/01/11 02:56:05;;;;;;;3.13;1.70;;;6.50;95.10;;;;;;5044977;28;20033;-86
2021/01/11 02:58:49;;;;;;;3.35;1.92;;;6.50;95.00;;;;;;5051657;28;20052;-87
2021/01/11 03:01:17;;;;;;;5.00;2.10;;;6.60;94.80;;;;;;5029022;28;20040;-86
2021/01/11 03:03:47;;;;;;;7.63;2.17;;;6.50;94.70;;;;;;5035353;28;20021;-86
2021/01/11 03:06:13;;;;;;;6.18;1.80;;;6.50;94.60;;;;;;5033677;28;20021;-87
2021/01/11 03:08:38;;;;;;;;;;;6.50;94.60;;;;;;5025326;28;20481;-87
2021/01/11 03:11:04;;;;;;;7.05;2.25;;;6.60;94.70;;;;;;5028648;28;19941;-87
2021/01/11 03:13:30;;;;;;;2.63;1.85;;;6.50;94.70;;;;;;5051644;28;20025;-87
2021/01/11 03:15:55;;;;;;;3.17;1.70;;;6.50;94.80;;;;;;5032120;28;20021;-88
2021/01/11 03:18:21;;;;;;;9.65;2.33;;;6.50;94.80;;;;;;5030631;28;20068;-87
2021/01/11 03:20:47;;;;;;;5.43;1.77;;;6.50;95.00;;;;;;5028970;28;20064;-87
2021/01/11 03:23:12;;;;;;;5.72;1.80;;;6.50;95.10;;;;;;5050203;28;20021;-87
2021/01/11 03:25:40;;;;;;;10.57;1.80;;;6.50;95.10;;;;;;5033466;28;20021;-85
2021/01/11 03:28:06;;;;;;;8.38;1.92;;;6.50;95.10;;;;;;5024444;28;20030;-86
2021/01/11 03:30:31;;;;;;;6.10;1.98;;;6.50;95.10;;;;;;5035633;28;20028;-87
2021/01/11 03:32:57;;;;;;;9.13;2.25;;;6.50;95.30;;;;;;5034682;28;20033;-86
2021/01/11 03:35:23;;;;;;;7.57;2.03;;;6.50;95.10;;;;;;5035329;28;20021;-85
2021/01/11 03:37:49;;;;;;;6.95;2.22;;;6.40;95.30;;;;;;5029980;28;20029;-87
2021/01/11 03:40:14;;;;;;;6.13;2.03;;;6.40;95.40;;;;;;5025875;28;20374;-87
2021/01/11 03:42:43;;;;;;;4.00;1.60;;;6.40;95.50;;;;;;5025264;28;20132;-87
2021/01/11 03:45:09;;;;;;;4.63;2.00;;;6.40;95.40;;;;;;5031738;28;20053;-87
2021/01/11 03:47:36;;;;;;;5.03;1.60;;;6.50;94.90;;;;;;5027275;28;20028;-87
2021/01/11 03:50:05;;;;;;;;;;;6.50;94.80;;;;;;5063919;28;20029;-87
2021/01/11 03:52:35;;;;;;;9.05;2.10;;;6.50;94.70;;;;;;5035125;28;19911;-87
2021/01/11 03:55:01;;;;;;;5.28;1.67;;;6.50;94.80;;;;;;5036377;28;20049;-87
2021/01/11 03:57:29;;;;;;;10.00;1.85;;;6.50;94.90;;;;;;5020981;28;20024;-87
2021/01/11 03:59:55;;;;;;;8.18;2.00;;;6.50;94.70;;;;;;5027530;28;20090;-86
2021/01/11 04:02:20;;;;;;;10.57;1.75;;;6.50;94.60;;;;;;5033419;28;20495;-87
2021/01/11 04:04:46;;;;;;;7.65;1.90;;;6.60;94.50;;;;;;5025489;28;20034;-87
2021/01/11 04:07:11;;;;;;;4.85;1.55;;;6.60;94.50;;;;;;5029185;28;20060;-86
2021/01/11 04:09:37;;;;;;;2.40;1.40;;;6.60;94.50;;;;;;5018243;28;20056;-87
2021/01/11 04:12:03;;;;;;;5.88;1.40;;;6.60;94.50;;;;;;5042959;28;20389;-86
2021/01/11 04:14:29;;;;;;;2.13;1.00;;;6.60;94.30;;;;;;5024219;28;20036;-85
2021/01/11 04:16:54;;;;;;;2.55;1.45;;;6.70;94.30;;;;;;5051751;28;20016;-86
2021/01/11 04:19:20;;;;;;;8.98;1.40;;;6.70;94.20;;;;;;5055548;28;20037;-86
2021/01/11 04:21:45;;;;;;;2.03;1.20;;;6.70;94.30;;;;;;5034409;28;20037;-86
2021/01/11 04:24:11;;;;;;;8.35;1.30;;;6.80;94.50;;;;;;5034691;28;20036;-87
2021/01/11 04:26:37;;;;;;;3.05;1.10;;;6.80;95.00;;;;;;5020169;28;20072;-87
2021/01/11 04:29:03;;;;;;;10.88;1.73;;;6.70;95.30;;;;;;5037816;28;20033;-87
2021/01/11 04:31:29;;;;;;;2.58;1.38;;;6.60;95.50;;;;;;5043434;28;20028;-85
2021/01/11 04:33:54;;;;;;;6.38;1.45;;;6.60;95.70;;;;;;5034178;28;20025;-87
2021/01/11 04:36:20;;;;;;;10.15;2.30;;;6.60;95.80;;;;;;5028273;28;20245;-87
2021/01/11 04:38:45;;;;;;;7.72;1.50;;;6.50;96.00;;;;;;5034237;28;20033;-87
2021/01/11 04:41:13;;;;;;;7.15;1.30;;;6.50;96.40;;;;;;5029380;28;20389;-86
2021/01/11 04:43:47;;;;;;;2.88;1.13;;;6.50;96.50;;;;;;5044738;28;20061;-87
2021/01/11 04:46:13;;;;;;;5.15;1.33;;;6.40;96.80;;;;;;5032867;28;20040;-87
2021/01/11 04:48:41;;;;;;;6.95;1.60;;;6.30;97.00;;;;;;5048142;28;20590;-88
2021/01/11 04:51:07;;;;;;;2.75;1.10;;;6.30;97.00;;;;;;5022367;28;20253;-87
2021/01/11 04:53:34;;;;;;;8.68;1.73;;;6.30;97.10;;;;;;5047588;28;20033;-86
2021/01/11 04:56:02;;;;;;;8.60;1.42;;;6.30;97.30;;;;;;5021662;28;20026;-87
2021/01/11 04:58:52;;;;;;;6.45;1.13;;;6.30;97.40;;;;;;5028867;28;20021;-85
2021/01/11 05:01:22;;;;;;;7.07;1.40;;;6.30;97.20;;;;;;5023192;28;20033;-85
2021/01/11 05:03:50;;;;;;;10.25;1.60;;;6.40;97.10;;;;;;5032830;28;20106;-86
2021/01/11 05:06:19;;;;;;;3.92;1.17;;;6.50;97.00;;;;;;5053090;28;20017;-85
2021/01/11 05:08:45;;;;;;;8.43;1.42;;;6.50;96.70;;;;;;5044654;28;20025;-86
2021/01/11 05:11:20;;;;;;;4.05;1.88;;;6.60;96.50;;;;;;5031530;28;20068;-87
2021/01/11 05:13:50;;;;;;;4.20;1.10;;;6.60;96.40;;;;;;5050700;28;20047;-86
2021/01/11 05:16:16;;;;;;;11.68;1.30;;;6.60;96.10;;;;;;5017929;28;20108;-85
2021/01/11 05:18:42;;;;;;;6.50;1.95;;;6.70;96.00;;;;;;5030834;28;20503;-84
2021/01/11 05:21:08;;;;;;;8.27;1.40;;;6.80;95.50;;;;;;5027317;28;20560;-86
2021/01/11 05:23:38;;;;;;;11.32;2.10;;;6.80;95.00;;;;;;5050519;28;20032;-87
2021/01/11 05:26:14;;;;;;;3.95;1.30;;;6.70;95.10;;;;;;5022454;28;20409;-87
2021/01/11 05:28:41;;;;;;;8.18;1.40;;;6.60;95.30;;;;;;5029183;28;20025;-86
2021/01/11 05:31:07;;;;;;;10.77;2.33;;;6.50;95.90;;;;;;5016846;28;20390;-87
2021/01/11 05:33:33;;;;;;;8.82;1.60;;;6.50;95.90;;;;;;5039412;28;20145;-88
2021/01/11 05:36:07;;;;;;;8.20;1.52;;;6.50;96.00;;;;;;5034157;28;20048;-87
2021/01/11 05:38:36;;;;;;;13.98;1.40;;;6.50;95.90;;;;;;5026334;28;20025;-88
2021/01/11 05:41:18;;;;;;;13.88;1.90;;;6.50;95.70;;;;;;5019329;28;20029;-87
2021/01/11 05:44:06;;;;;;;8.10;1.63;;;6.40;95.50;;;;;;5030904;28;20032;-87
2021/01/11 05:46:32;;;;;;;8.48;2.00;;;6.40;95.40;;;;;;5031468;28;20059;-86
2021/01/11 05:48:59;;;;;;;9.93;1.60;;;6.50;95.60;;;;;;5023478;28;20049;-86
2021/01/11 05:51:26;;;;;;;9.35;1.70;;;6.50;95.30;;;;;;5050023;28;20033;-87
2021/01/11 05:53:52;;;;;;;10.40;1.83;;;6.60;94.90;;;;;;5053972;28;20033;-86
2021/01/11 05:56:17;;;;;;;8.57;1.70;;;6.60;94.80;;;;;;5025080;28;20052;-87
2021/01/11 05:59:02;;;;;;;7.70;1.58;;;6.70;94.30;;;;;;5036916;28;20036;-86
2021/01/11 06:01:32;;;;;;;6.82;1.70;;;6.70;94.20;;;;;;5021911;28;20032;-86
2021/01/11 06:03:58;;;;;;;6.82;1.60;;;6.80;93.80;;;;;;5026816;28;20033;-87
2021/01/11 06:06:25;;;;;;;6.60;1.60;;;6.90;93.20;;;;;;5035774;28;20464;-86
2021/01/11 06:08:52;;;;;;;13.35;1.70;;;7.00;92.70;;;;;;5018306;28;20144;-86
2021/01/11 06:11:28;;;;;;;4.07;1.40;;;6.90;92.60;;;;;;5032448;28;20477;-86
2021/01/11 06:13:58;;;;;;;7.20;1.67;;;7.00;92.00;;;;;;5029084;28;20033;-87
2021/01/11 06:16:28;;;;;;;5.63;1.33;;;7.00;92.10;;;;;;5033434;28;20025;-86
2021/01/11 06:18:54;;;;;;;12.02;1.80;;;7.00;92.20;;;;;;5039076;28;20377;-87
2021/01/11 06:21:21;;;;;;;7.70;1.50;;;7.00;92.40;;;;;;5025551;28;20048;-87
2021/01/11 06:23:47;;;;;;;7.15;1.70;;;7.00;92.40;;;;;;5032414;28;20025;-87
2021/01/11 06:26:25;;;;;;;6.18;1.67;;;7.00;92.40;;;;;;5018466;28;20026;-87
2021/01/11 06:28:52;;;;;;;9.50;1.92;;;7.10;92.30;;;;;;5038844;28;20025;-87
2021/01/11 06:31:18;;;;;;;7.20;1.35;;;7.10;92.10;;;;;;5045081;28;21652;-87
2021/01/11 06:33:44;;;;;;;7.78;2.05;;;7.10;91.80;;;;;;5026946;28;20025;-88
2021/01/11 06:36:24;;;;;;;9.82;1.83;;;7.10;91.40;;;;;;5052507;28;20033;-86
2021/01/11 06:38:52;;;;;;;9.63;2.20;;;7.10;91.00;;;;;;5044717;28;20029;-88
2021/01/11 06:41:20;;;;;;;15.90;2.25;;;7.10;91.20;;;;;;5031141;28;20025;-88
2021/01/11 06:43:48;;;;;;;3.15;2.22;;;7.10;91.10;;;;;;5036394;28;20505;-88
2021/01/11 06:46:29;;;;;;;6.20;2.42;;;7.10;90.80;;;;;;5032892;28;20025;-86
2021/01/11 06:48:56;;;;;;;8.43;2.30;;;7.20;90.80;;;;;;5020695;28;20036;-86
2021/01/11 06:51:30;;;;;;;9.68;2.45;;;7.20;90.70;;;;;;5026654;28;20160;-87
2021/01/11 06:54:14;;;;;;;6.00;2.55;;;7.10;90.90;;;;;;5021262;28;20032;-88
2021/01/11 06:56:42;;;;;;;10.50;2.38;;;7.20;90.30;;;;;;5027615;28;20029;-87
2021/01/11 06:59:11;;;;;;;8.35;2.10;;;7.30;90.00;;;;;;5031639;28;20069;-87
2021/01/11 07:01:40;;;;;;;6.55;2.20;;;7.40;89.90;;;;;;5047112;28;20078;-87
2021/01/11 07:04:07;;;;;;;5.13;1.90;;;7.30;90.30;;;;;;5041486;28;20041;-87
2021/01/11 07:06:37;;;;;;;8.23;2.63;;;7.30;90.10;;;;;;5036101;28;20589;-86
2021/01/11 07:09:07;;;;;;;5.15;2.17;;;7.20;90.50;;;;;;5028015;28;20434;-87
2021/01/11 07:11:47;;;;;;;11.95;2.70;;;7.20;90.40;;;;;;5029896;28;20374;-86
2021/01/11 07:14:14;;;;;;;6.90;2.00;;;7.20;90.60;;;;;;5029646;28;20017;-87
2021/01/11 07:16:55;;;;;;;7.68;1.88;;;7.20;90.50;;;;;;5036277;28;20029;-86
2021/01/11 07:19:31;;;;;;;10.10;2.08;;;7.20;90.70;;;;;;5042792;28;20568;-87
2021/01/11 07:21:57;;;;;;;11.73;4.13;;;7.20;90.90;;;;;;5032053;28;20045;-87
2021/01/11 07:24:23;;;;;;;8.90;3.15;;;7.20;90.90;;;;;;5027188;28;20033;-87
2021/01/11 07:26:49;;;;;;;12.88;2.25;;;7.20;91.00;;;;;;5029810;28;20033;-88
2021/01/11 07:29:16;;;;;;;5.78;1.90;;;7.10;91.10;;;;;;5032261;28;20033;-87
2021/01/11 07:31:44;;;;;;;10.02;3.15;;;7.20;91.30;;;;;;5050961;28;20020;-89
2021/01/11 07:34:11;;;;;;;10.73;1.88;;;7.20;91.60;;;;;;5030176;28;20454;-90
2021/01/11 07:36:51;;;;;;;10.27;1.77;;;7.20;91.30;;;;;;5034102;28;20500;-89
2021/01/11 07:39:31;;;;;;;11.50;2.35;;;7.20;91.10;;;;;;5027809;28;20045;-88
2021/01/11 07:42:03;;;;;;;26.88;14.73;;;7.20;91.00;;;;;;5032000;28;20056;-88
2021/01/11 07:44:32;;;;;;;11.90;1.70;;;7.20;91.00;;;;;;5028807;28;20048;-95
2021/01/11 07:47:02;;;;;;;10.57;2.30;;;7.30;91.00;;;;;;5026913;28;20036;-93
2021/01/11 07:49:30;;;;;;;6.78;2.42;;;7.20;91.00;;;;;;5040544;28;20474;-93
2021/01/11 07:52:07;;;;;;;6.45;2.20;;;7.10;91.10;;;;;;5035995;28;20027;-94
2021/01/11 07:54:34;;;;;;;9.70;2.40;;;7.10;91.20;;;;;;5038534;28;20071;-94
2021/01/11 07:56:59;;;;;;;8.15;1.63;;;7.10;91.40;;;;;;5038231;28;20549;-93
2021/01/11 07:59:26;;;;;;;10.35;2.08;;;7.10;91.30;;;;;;5032569;28;20051;-92
2021/01/11 08:01:51;;;;;;;10.02;2.10;;;7.00;91.40;;;;;;5046764;28;20109;-89
2021/01/11 08:04:19;;;;;;;6.65;1.42;;;7.00;91.40;;;;;;5038228;28;20079;-90
2021/01/11 08:06:57;;;;;;;13.75;1.70;;;7.00;91.50;;;;;;5028399;28;20120;-90
2021/01/11 08:09:29;;;;;;;8.50;2.17;;;7.00;91.40;;;;;;5037379;28;20032;-91
2021/01/11 08:12:17;;;;;;;8.13;1.38;;;7.10;91.10;;;;;;5055440;28;20028;-91
2021/01/11 08:14:47;;;;;;;10.75;4.95;;;7.10;90.90;;;;;;5034750;28;20017;-90
2021/01/11 08:17:20;;;;;;;10.48;2.28;;;7.20;90.90;;;;;;5035737;28;20029;-89
2021/01/11 08:19:57;;;;;;;9.02;1.60;;;7.10;90.80;;;;;;5023393;28;20493;-81
2021/01/11 08:22:23;;;;;;;;;;;7.10;90.90;;;;;;5051492;28;20090;-81
2021/01/11 08:24:50;;;;;;;5.82;2.08;;;7.20;90.90;;;;;;5031155;28;19986;-80
2021/01/11 08:27:39;;;;;;;13.32;2.28;;;7.20;90.90;;;;;;5049512;28;20017;-79
2021/01/11 08:30:08;;;;;;;10.95;2.10;;;7.20;90.50;;;;;;5031050;28;20017;-78
2021/01/11 08:32:35;;;;;;;10.98;2.20;;;7.20;90.50;;;;;;5051410;28;20032;-79
2021/01/11 08:35:15;;;;;;;18.70;2.70;;;7.20;90.60;;;;;;5050402;28;20144;-79
2021/01/11 08:37:42;;;;;;;7.45;2.00;;;7.30;90.60;;;;;;5051350;28;20025;-79
2021/01/11 08:40:17;;;;;;;9.98;2.42;;;7.30;90.50;;;;;;5050409;28;20024;-80
2021/01/11 08:42:44;;;;;;;9.07;1.85;;;7.30;90.40;;;;;;5051127;28;20159;-80
2021/01/11 08:45:34;;;;;;;7.63;1.92;;;7.30;90.50;;;;;;5051045;28;20470;-83
2021/01/11 08:48:11;;;;;;;10.30;1.50;;;7.30;90.40;;;;;;5050386;28;20056;-79
2021/01/11 08:50:40;;;;;;;12.02;1.88;;;7.30;90.50;;;;;;5033057;28;20021;-77
2021/01/11 08:53:25;;;;;;;9.48;1.98;;;7.30;90.50;;;;;;5050203;28;20047;-79
2021/01/11 08:56:03;;;;;;;18.77;2.53;;;7.20;90.70;;;;;;5050910;28;20025;-80
2021/01/11 08:58:34;;;;;;;15.75;5.28;;;7.20;90.90;;;;;;5050372;28;20534;-82
2021/01/11 09:01:15;;;;;;;9.18;2.30;;;7.30;90.80;;;;;;5051587;28;20032;-80
2021/01/11 09:03:55;;;;;;;9.60;2.75;;;7.30;90.80;;;;;;5038950;28;20458;-79
2021/01/11 09:06:39;;;;;;;14.32;1.55;;;7.30;90.80;;;;;;5064504;28;20033;-81
2021/01/11 09:09:13;;;;;;;8.75;1.58;;;7.30;91.00;;;;;;5049955;28;20032;-81
2021/01/11 09:11:43;;;;;;;13.75;1.75;;;7.30;91.20;;;;;;5049804;28;20070;-79
2021/01/11 09:14:14;;;;;;;19.48;2.72;;;7.30;91.30;;;;;;5051437;28;20019;-78
2021/01/11 09:16:41;;;;;;;10.65;1.58;;;7.30;91.40;;;;;;5049188;28;20548;-80
2021/01/11 09:19:18;;;;;;;10.02;2.10;;;7.40;91.50;;;;;;5024559;28;20029;-79
2021/01/11 09:21:44;;;;;;;;;;;7.40;91.70;;;;;;5028483;28;20065;-78
2021/01/11 09:24:12;;;;;;;6.90;1.90;;;7.40;91.60;;;;;;5048629;28;19948;-79
2021/01/11 09:26:39;;;;;;;13.18;1.67;;;7.50;91.60;;;;;;5031472;28;20029;-79
2021/01/11 09:29:06;;;;;;;9.88;1.77;;;7.50;91.80;;;;;;5028199;28;20128;-79
2021/01/11 09:31:32;;;;;;;10.10;2.25;;;7.50;91.80;;;;;;5049011;28;20059;-79
2021/01/11 09:33:58;;;;;;;13.13;3.22;;;7.50;92.00;;;;;;5027311;28;20053;-78
2021/01/11 09:36:24;;;;;;;9.63;1.75;;;7.50;92.10;;;;;;5049591;28;20033;-78
2021/01/11 09:38:50;;;;;;;10.30;2.53;;;7.70;92.10;;;;;;5049650;28;20029;-79
2021/01/11 09:41:17;;;;;;;13.65;1.70;;;7.70;92.20;;;;;;5052363;28;20045;-79
2021/01/11 09:43:43;;;;;;;10.88;1.92;;;7.70;92.40;;;;;;5055199;28;20553;-78
2021/01/11 09:46:10;;;;;;;6.05;1.83;;;7.70;92.50;;;;;;5064564;28;20035;-79
2021/01/11 09:48:36;;;;;;;9.18;1.50;;;7.70;92.80;;;;;;5051957;28;20067;-77
2021/01/11 09:51:02;;;;;;;;;;;7.70;93.20;;;;;;5053573;28;20032;-78
2021/01/11 09:53:28;;;;;;;7.72;1.50;;;7.70;93.50;;;;;;5034963;28;20269;-78
2021/01/11 09:55:54;;;;;;;11.80;2.00;;;7.80;94.00;;;;;;5041840;28;20036;-79
2021/01/11 09:58:20;;;;;;;9.82;1.75;;;7.70;94.60;;;;;;5036272;28;20025;-79
2021/01/11 10:00:45;;;;;;;11.10;2.17;;;7.70;95.40;;;;;;5057750;28;20078;-78
2021/01/11 10:03:11;;;;;;;15.45;1.70;;;7.60;96.00;;;;;;5035140;28;20090;-77
2021/01/11 10:05:36;;;;;;;7.38;1.98;;;7.60;96.50;;;;;;5036577;28;20020;-78
2021/01/11 10:08:03;;;;;;;11.27;2.22;;;7.60;96.70;;;;;;5048755;28;20034;-78
2021/01/11 10:10:29;;;;;;;11.05;1.70;;;7.70;97.00;;;;;;5013764;28;20026;-78
2021/01/11 10:12:54;;;;;;;10.77;1.52;;;7.60;97.30;;;;;;5019018;28;20539;-78
2021/01/11 10:15:20;;;;;;;6.63;1.63;;;7.60;97.70;;;;;;5051735;28;20034;-77
2021/01/11 10:17:46;;;;;;;9.35;2.40;;;7.60;97.50;;;;;;5043186;28;20032;-77
2021/01/11 10:20:12;;;;;;;13.73;1.88;;;7.60;97.20;;;;;;5033716;28;20036;-77
2021/01/11 10:22:39;;;;;;;13.55;2.00;;;7.70;96.60;;;;;;5056292;28;20044;-76
2021/01/11 10:25:06;;;;;;;7.28;1.73;;;7.70;96.50;;;;;;5054377;28;20075;-78
2021/01/11 10:27:32;;;;;;;8.90;1.85;;;7.70;96.30;;;;;;5051521;28;20032;-79
2021/01/11 10:29:58;;;;;;;10.13;2.33;;;7.80;96.00;;;;;;5055732;28;20027;-81
2021/01/11 10:32:24;;;;;;;;;;;7.80;95.70;;;;;;5055177;28;20049;-80
2021/01/11 10:34:50;;;;;;;5.50;2.28;;;7.80;95.30;;;;;;5044432;28;20345;-81
2021/01/11 10:37:15;;;;;;;13.27;1.90;;;7.80;95.40;;;;;;5042539;28;20082;-80
2021/01/11 10:39:41;;;;;;;9.02;1.48;;;7.80;95.60;;;;;;5061693;28;20029;-80
2021/01/11 10:42:07;;;;;;;2.47;1.52;;;7.80;95.20;;;;;;5027630;28;20820;-80
2021/01/11 10:44:34;;;;;;;11.73;1.73;;;7.90;95.30;;;;;;5045629;28;20036;-77
2021/01/11 10:47:00;;;;;;;9.57;1.70;;;7.90;95.00;;;;;;5035541;28;20063;-78
2021/01/11 10:49:27;;;;;;;10.90;1.60;;;8.00;94.80;;;;;;5060948;28;20023;-78
2021/01/11 10:51:55;;;;;;;12.80;1.70;;;8.00;94.30;;;;;;5071806;28;20107;-79
2021/01/11 10:54:22;;;;;;;12.65;1.80;;;8.00;94.60;;;;;;5052157;28;20028;-78
2021/01/11 10:56:50;;;;;;;11.35;1.85;;;8.00;94.10;;;;;;5031341;28;20044;-77
2021/01/11 10:59:16;;;;;;;7.95;1.48;;;8.00;94.40;;;;;;5052857;28;20078;-79
2021/01/11 11:01:42;;;;;;;10.50;1.40;;;8.00;94.00;;;;;;5051970;28;20406;-77
2021/01/11 11:04:08;;;;;;;16.77;1.98;;;8.00;93.80;;;;;;5054350;28;20021;-78
2021/01/11 11:06:33;;;;;;;7.53;1.73;;;8.00;94.00;;;;;;5039253;28;20025;-79
2021/01/11 11:08:59;;;;;;;14.88;1.77;;;8.10;93.40;;;;;;5056126;28;20073;-78
2021/01/11 11:11:24;;;;;;;11.30;1.63;;;8.10;93.50;;;;;;5023606;28;20036;-79
2021/01/11 11:13:50;;;;;;;11.18;1.80;;;8.20;92.90;;;;;;5067455;28;20542;-80
2021/01/11 11:16:16;;;;;;;11.80;2.42;;;8.20;93.30;;;;;;5036140;28;20063;-78
2021/01/11 11:18:42;;;;;;;17.50;1.52;;;8.20;93.00;;;;;;5031986;28;20478;-79
2021/01/11 11:21:09;;;;;;;9.63;2.20;;;8.20;93.10;;;;;;5052382;28;20040;-78
2021/01/11 11:23:35;;;;;;;14.70;1.95;;;8.30;93.10;;;;;;5052930;28;20060;-79
2021/01/11 11:26:03;;;;;;;12.43;1.52;;;8.40;92.90;;;;;;5033190;28;20358;-78
2021/01/11 11:28:29;;;;;;;12.20;2.10;;;8.50;92.70;;;;;;5030917;28;20021;-79
2021/01/11 11:30:55;;;;;;;12.48;1.52;;;8.50;92.00;;;;;;5052565;28;20047;-80
2021/01/11 11:33:21;;;;;;;17.13;2.08;;;8.70;91.90;;;;;;5066225;28;20031;-80
2021/01/11 11:35:47;;;;;;;10.25;1.30;;;8.80;91.90;;;;;;5063984;28;20029;-81
2021/01/11 11:38:12;;;;;;;13.30;1.52;;;9.00;90.90;;;;;;5053840;28;20036;-81
2021/01/11 11:40:39;;;;;;;8.18;1.58;;;9.10;90.70;;;;;;5051790;28;20482;-81
2021/01/11 11:43:05;;;;;;;10.25;1.90;;;9.10;90.40;;;;;;5052515;28;20033;-80
2021/01/11 11:45:33;;;;;;;5.57;1.75;;;9.10;90.70;;;;;;5054704;28;20350;-79
2021/01/11 11:47:59;;;;;;;7.55;1.42;;;9.20;90.30;;;;;;5054928;28;20087;-79
2021/01/11 11:50:25;;;;;;;8.18;1.52;;;9.20;90.20;;;;;;5043033;28;20029;-78
2021/01/11 11:52:50;;;;;;;5.30;1.50;;;9.20;90.50;;;;;;5057109;28;20275;-79
2021/01/11 11:55:16;;;;;;;9.45;1.38;;;9.20;90.60;;;;;;5054782;28;20052;-79
2021/01/11 11:57:43;;;;;;;14.85;1.83;;;9.10;90.60;;;;;;5054134;28;20025;-80
2021/01/11 12:00:13;;;;;;;10.95;1.98;;;9.00;90.70;;;;;;5060138;28;20465;-79
2021/01/11 12:02:43;;;;;;;12.52;1.85;;;9.00;91.10;;;;;;5040854;28;20166;-80
2021/01/11 12:05:13;;;;;;;30.17;2.83;;;9.00;91.10;;;;;;5056204;28;20017;-79
2021/01/11 12:07:39;;;;;;;12.07;1.73;;;8.90;91.50;;;;;;5040217;28;20612;-79
2021/01/11 12:10:07;;;;;;;14.50;1.83;;;8.90;92.00;;;;;;5043683;28;20097;-80
2021/01/11 12:12:32;;;;;;;13.00;1.67;;;8.80;92.40;;;;;;5057570;28;20121;-80
2021/01/11 12:14:59;;;;;;;13.27;1.75;;;8.80;92.70;;;;;;5059531;28;20502;-80
2021/01/11 12:17:26;;;;;;;10.55;1.73;;;8.80;92.70;;;;;;5055625;28;20029;-80
2021/01/11 12:19:51;;;;;;;8.05;2.10;;;8.80;93.10;;;;;;5052240;28;20036;-81
2021/01/11 12:22:17;;;;;;;12.75;2.38;;;8.70;93.50;;;;;;5042469;28;20033;-80
2021/01/11 12:24:43;;;;;;;18.77;2.58;;;8.60;94.40;;;;;;5035488;28;20655;-79
2021/01/11 12:27:08;;;;;;;13.18;1.73;;;8.60;95.00;;;;;;5026802;28;20025;-81
2021/01/11 12:29:34;;;;;;;12.02;2.70;;;8.60;95.50;;;;;;5062749;28;20020;-78
2021/01/11 12:32:09;;;;;;;9.32;2.05;;;8.50;95.40;;;;;;5060501;28;20030;-78
2021/01/11 12:34:43;;;;;;;16.73;2.08;;;8.50;95.80;;;;;;5047359;28;20498;-77
2021/01/11 12:37:16;;;;;;;12.98;1.80;;;8.40;96.00;;;;;;5058828;28;20421;-80
2021/01/11 12:39:42;;;;;;;11.25;2.53;;;8.30;96.40;;;;;;5052879;28;20079;-81
2021/01/11 12:42:09;;;;;;;9.00;1.92;;;8.30;96.90;;;;;;5050559;28;20393;-78
2021/01/11 12:44:35;;;;;;;8.60;2.10;;;8.30;96.60;;;;;;5040067;28;20450;-80
2021/01/11 12:47:01;;;;;;;16.17;2.20;;;8.30;95.10;;;;;;5037843;28;20029;-80
2021/01/11 12:49:29;;;;;;;9.57;1.98;;;8.30;94.80;;;;;;5052919;28;20587;-81
2021/01/11 12:51:54;;;;;;;10.50;1.65;;;8.20;95.10;;;;;;5050234;28;20023;-79
2021/01/11 12:54:20;;;;;;;12.05;2.47;;;8.20;95.50;;;;;;5060857;28;20040;-81
2021/01/11 12:56:46;;;;;;;10.40;2.42;;;8.10;95.80;;;;;;5039908;28;20390;-80
2021/01/11 12:59:12;;;;;;;13.73;2.17;;;8.10;96.30;;;;;;5056824;28;20131;-80
2021/01/11 13:01:39;;;;;;;12.63;2.10;;;8.10;96.70;;;;;;5055525;28;20036;-78